Airfield :
LOGIN :

Register | Disclaimer

   EN    FR    IT 

 










Legend :    VFR   Marginal VFR   IFR   Intensive IFR   Very Intensive IFR
Visi :
Ceiling :
>= 8 km
>= 3000ft
5 to 8 km
1000 to 3000 ft
1500m to 5 km
500 to 1000 ft
800 to 1500m
200 to 500 ft
< 800m
< 200 ft
Symbols :   Thunderstorms  Fog  Heavy snow  Heavy precipitations  Wind > 20 kt
SIGMETs :     Misc.  Thunderstorms  Icing  Turbulence  Mountain Waves  Volcanic Ashes







- Airport Elevation : 46 ft
- IATA code : SNN


EINN - Shannon

CURRENT METAR :
  • 200400Z 18005KT 9999 FEW032 SCT050 09/06 Q1008 NOSIG

EXPIRED METARs :
  • 200330Z 17006KT 9999 FEW035 09/06 Q1008 NOSIG
  • 200300Z 18006KT 9999 FEW045 SCT120 09/06 Q1008 NOSIG
  • 200230Z 15007KT 9999 SCT045 09/06 Q1008 NOSIG
  • 200200Z 21007KT 9999 FEW040 10/07 Q1008 NOSIG
  • 200130Z 17004KT 9999 FEW021 09/06 Q1008 NOSIG

TAF TAF EINN
Valid from the 20 at 00:00 until the 21 at 00:00 UTC


192300Z 2000/2024 22010KT 9999 FEW020 BKN040
BECMG 2003/2006 17005KT
BECMG 2009/2012 14007KT -RA BKN012
BECMG 2012/2015 03010KT
TEMPO 2014/2019 4000 RA
BECMG 2015/2018 34008KT
BECMG 2020/2023 28012KT SCT018 BKN020
TEMPO 2021/2024 -SHRA SCT018CB
No reported NOTAMs for that airfield.



MET'MAP, your aeronautical weather chart ! - Copyright ORBIFLY December 2007 - Disclaimer

ORBIFLY MET'MAP TEAM :

Programming & Development : Alexandra Zaïnal
Concept & Development : Baudouin d'Aumeries
Co-Development & Prog : Marc-Olivier Méhu
Technical & hardware support : Manuel Goepfert

Contact : metmap@orbifly.com




SOURCES & CREDITS :

   NOAA